createdAt,value
2017-04-20T00:00:24.976Z,12.75
2017-04-20T00:01:25.041Z,13.92
2017-04-20T00:02:25.073Z,13.35
2017-04-20T00:03:25.118Z,13.52
2017-04-20T00:04:25.161Z,13.58
2017-04-20T00:05:25.580Z,14.80
2017-04-20T00:06:26.449Z,14.40
2017-04-20T00:07:26.482Z,14.90
2017-04-20T00:08:26.574Z,12.95
2017-04-20T00:09:26.564Z,12.62
2017-04-20T00:10:26.950Z,13.12
2017-04-20T00:11:27.763Z,12.87
2017-04-20T00:12:27.774Z,12.13
2017-04-20T00:13:28.599Z,11.82
2017-04-20T00:14:28.844Z,12.30
2017-04-20T00:15:29.236Z,12.95
2017-04-20T00:16:29.831Z,12.42
2017-04-20T00:17:29.834Z,12.82
2017-04-20T00:18:30.420Z,12.45
2017-04-20T00:19:30.402Z,12.15
2017-04-20T00:20:30.713Z,12.87
2017-04-20T00:21:30.710Z,12.93
2017-04-20T00:22:31.411Z,14.12
2017-04-20T00:23:31.422Z,14.07
2017-04-20T00:24:31.434Z,14.05
2017-04-20T00:25:32.586Z,14.00
2017-04-20T00:26:32.710Z,14.30
2017-04-20T00:27:32.965Z,14.72
2017-04-20T00:28:33.794Z,15.20
2017-04-20T00:29:33.824Z,16.35
2017-04-20T00:30:34.248Z,15.18
2017-04-20T00:31:34.825Z,14.22
2017-04-20T00:32:35.782Z,15.47
2017-04-20T00:33:35.933Z,17.15
2017-04-20T00:34:36.025Z,14.73
2017-04-20T00:35:37.244Z,13.83
2017-04-20T00:36:37.408Z,15.32
2017-04-20T00:37:37.486Z,14.40
2017-04-20T00:38:38.049Z,13.82
2017-04-20T00:39:38.071Z,14.52
2017-04-20T00:40:39.163Z,14.25
2017-04-20T00:41:39.867Z,14.20
2017-04-20T00:42:39.866Z,14.10
2017-04-20T00:43:39.895Z,14.22
2017-04-20T00:44:39.903Z,14.43
2017-04-20T00:45:40.278Z,14.82
2017-04-20T00:46:40.897Z,13.83
2017-04-20T00:47:40.911Z,13.25
2017-04-20T00:48:42.432Z,13.88
2017-04-20T00:49:42.699Z,12.70
2017-04-20T00:50:43.078Z,12.43
2017-04-20T00:51:43.842Z,12.78
2017-04-20T00:52:43.921Z,12.15
2017-04-20T00:53:43.892Z,13.27
2017-04-20T00:54:43.934Z,12.40
2017-04-20T00:55:44.230Z,11.40
2017-04-20T00:56:44.319Z,12.02
2017-04-20T00:57:44.335Z,12.35
2017-04-20T00:58:44.333Z,12.70
2017-04-20T00:59:45.043Z,12.12
2017-04-20T01:00:45.401Z,12.45
2017-04-20T01:01:46.260Z,11.98
2017-04-20T01:02:46.329Z,12.50
2017-04-20T01:03:47.092Z,12.70
2017-04-20T01:04:47.190Z,12.57
2017-04-20T01:05:47.523Z,11.17
2017-04-20T01:06:47.632Z,11.68
2017-04-20T01:07:47.643Z,11.87
2017-04-20T01:08:47.730Z,12.38
2017-04-20T01:09:47.763Z,11.97
2017-04-20T01:10:48.743Z,12.83
2017-04-20T01:11:48.702Z,12.60
2017-04-20T01:12:48.732Z,12.43
2017-04-20T01:13:48.738Z,11.83
2017-04-20T01:14:48.792Z,12.78
2017-04-20T01:15:49.176Z,12.42
2017-04-20T01:16:49.193Z,13.97
2017-04-20T01:17:49.967Z,13.95
2017-04-20T01:18:49.959Z,12.80
2017-04-20T01:19:50.002Z,14.05
2017-04-20T01:20:50.437Z,12.95
2017-04-20T01:21:51.172Z,13.65
2017-04-20T01:22:51.170Z,13.27
2017-04-20T01:23:52.555Z,13.63
2017-04-20T01:24:52.537Z,13.45
2017-04-20T01:25:52.925Z,12.18
2017-04-20T01:26:52.930Z,14.30
2017-04-20T01:27:53.704Z,12.32
2017-04-20T01:28:53.743Z,12.17
2017-04-20T01:29:54.380Z,13.72
2017-04-20T01:30:54.685Z,12.83
2017-04-20T01:31:55.223Z,12.87
2017-04-20T01:32:55.999Z,12.57
2017-04-20T01:33:56.031Z,12.30
2017-04-20T01:34:56.062Z,12.40
2017-04-20T01:35:56.333Z,13.32
2017-04-20T01:36:56.508Z,13.77
2017-04-20T01:37:56.557Z,12.88
2017-04-20T01:38:56.561Z,12.25
2017-04-20T01:39:56.581Z,12.75
2017-04-20T01:40:57.529Z,12.40
2017-04-20T01:41:58.725Z,11.78
2017-04-20T01:42:58.882Z,12.68
2017-04-20T01:43:58.885Z,13.58
2017-04-20T01:44:59.640Z,13.05
2017-04-20T01:46:00.038Z,12.07
2017-04-20T01:47:00.770Z,13.38
2017-04-20T01:48:00.786Z,12.33
2017-04-20T01:49:00.818Z,12.10
2017-04-20T01:50:00.930Z,11.97
2017-04-20T01:51:01.270Z,13.35
2017-04-20T01:52:01.289Z,12.50
2017-04-20T01:53:03.006Z,12.78
2017-04-20T01:54:03.140Z,11.65
2017-04-20T01:55:03.992Z,12.73
2017-04-20T01:56:04.279Z,13.03
2017-04-20T01:57:04.963Z,12.58
2017-04-20T01:58:04.982Z,12.27
2017-04-20T01:59:05.510Z,11.30
2017-04-20T02:00:05.554Z,12.53
2017-04-20T02:01:05.944Z,11.52
2017-04-20T02:02:06.010Z,12.15
2017-04-20T02:03:06.301Z,11.55
2017-04-20T02:04:06.313Z,11.83
2017-04-20T02:05:06.332Z,11.25
2017-04-20T02:06:06.733Z,11.88
2017-04-20T02:07:06.769Z,11.33
2017-04-20T02:08:06.793Z,11.60
2017-04-20T02:09:06.987Z,11.82
2017-04-20T02:10:10.207Z,11.20
2017-04-20T02:11:11.449Z,11.88
2017-04-20T02:12:11.667Z,10.67
2017-04-20T02:13:11.691Z,12.45
2017-04-20T02:14:11.722Z,10.60
2017-04-20T02:15:12.509Z,11.48
2017-04-20T02:16:13.401Z,11.52
2017-04-20T02:17:13.441Z,11.23
2017-04-20T02:18:13.446Z,11.17
2017-04-20T02:19:13.509Z,11.75
2017-04-20T02:20:13.501Z,12.50
2017-04-20T02:21:14.575Z,11.75
2017-04-20T02:22:15.424Z,11.68
2017-04-20T02:23:15.425Z,11.65
2017-04-20T02:24:15.445Z,10.13
2017-04-20T02:25:15.597Z,10.62
2017-04-20T02:26:15.893Z,11.05
2017-04-20T02:27:16.150Z,11.35
2017-04-20T02:28:16.890Z,11.52
2017-04-20T02:29:16.986Z,11.72
2017-04-20T02:30:17.761Z,10.58
2017-04-20T02:31:20.301Z,10.60
2017-04-20T02:32:20.989Z,10.65
2017-04-20T02:33:21.761Z,11.55
2017-04-20T02:34:21.831Z,11.62
2017-04-20T02:35:23.276Z,11.48
2017-04-20T02:36:24.394Z,12.55
2017-04-20T02:37:24.487Z,11.72
2017-04-20T02:38:24.494Z,11.38
2017-04-20T02:39:24.504Z,10.82
2017-04-20T02:40:25.396Z,11.50
2017-04-20T02:41:25.942Z,9.90
2017-04-20T02:42:26.078Z,11.93
2017-04-20T02:43:28.350Z,11.33
2017-04-20T02:44:29.218Z,11.10
2017-04-20T02:45:29.221Z,12.68
2017-04-20T02:46:29.548Z,11.77
2017-04-20T02:47:29.627Z,11.35
2017-04-20T02:48:29.689Z,11.10
2017-04-20T02:49:29.712Z,10.37
2017-04-20T02:50:30.455Z,10.37
2017-04-20T02:51:31.373Z,11.07
2017-04-20T02:52:32.108Z,12.27
2017-04-20T02:53:32.597Z,11.27
2017-04-20T02:54:32.621Z,12.40
2017-04-20T02:55:33.430Z,11.48
2017-04-20T02:56:33.737Z,11.15
2017-04-20T02:57:33.734Z,10.83
2017-04-20T02:58:33.770Z,12.25
2017-04-20T02:59:35.293Z,11.72
2017-04-20T03:00:36.000Z,12.28
2017-04-20T03:01:36.434Z,11.82
2017-04-20T03:02:36.538Z,13.62
2017-04-20T03:03:36.607Z,12.27
2017-04-20T03:04:36.646Z,13.45
2017-04-20T03:05:36.819Z,12.68
2017-04-20T03:06:37.921Z,12.83
2017-04-20T03:07:38.682Z,12.15
2017-04-20T03:08:38.682Z,12.08
2017-04-20T03:09:39.292Z,12.18
2017-04-20T03:10:39.945Z,12.98
2017-04-20T03:11:41.005Z,11.73
2017-04-20T03:12:41.752Z,12.27
2017-04-20T03:13:41.843Z,12.32
2017-04-20T03:14:42.631Z,10.78
2017-04-20T03:15:42.772Z,11.58
2017-04-20T03:16:43.208Z,11.42
2017-04-20T03:17:43.229Z,10.75
2017-04-20T03:18:43.814Z,10.78
2017-04-20T03:19:44.586Z,11.10
2017-04-20T03:20:44.629Z,12.32
2017-04-20T03:21:45.063Z,10.65
2017-04-20T03:22:45.086Z,10.60
2017-04-20T03:23:45.841Z,11.20
2017-04-20T03:24:45.965Z,11.38
2017-04-20T03:25:45.967Z,11.75
2017-04-20T03:26:46.329Z,10.58
2017-04-20T03:27:46.360Z,10.58
2017-04-20T03:28:46.616Z,11.38
2017-04-20T03:29:46.620Z,10.88
2017-04-20T03:30:46.621Z,10.68
2017-04-20T03:31:46.969Z,10.93
2017-04-20T03:32:47.099Z,10.80
2017-04-20T03:33:49.089Z,10.25
2017-04-20T03:34:49.121Z,10.23
2017-04-20T03:35:49.216Z,10.75
2017-04-20T03:36:49.546Z,10.52
2017-04-20T03:37:49.773Z,9.75
2017-04-20T03:38:49.722Z,11.25
2017-04-20T03:39:49.769Z,10.62
2017-04-20T03:40:49.992Z,11.13
2017-04-20T03:41:51.373Z,10.82
2017-04-20T03:42:52.105Z,10.20
2017-04-20T03:43:52.177Z,11.22
2017-04-20T03:44:52.974Z,10.65
2017-04-20T03:45:53.935Z,12.00
2017-04-20T03:46:55.156Z,10.52
2017-04-20T03:47:55.753Z,9.90
2017-04-20T03:48:55.769Z,10.02
2017-04-20T03:49:55.831Z,10.53
2017-04-20T03:50:55.874Z,10.60
2017-04-20T03:51:56.322Z,9.57
2017-04-20T03:52:57.181Z,9.72
2017-04-20T03:53:57.191Z,10.98
2017-04-20T03:54:57.626Z,11.87
2017-04-20T03:55:57.669Z,10.12
2017-04-20T03:56:57.985Z,10.55
2017-04-20T03:57:58.210Z,10.48
2017-04-20T03:58:59.014Z,10.07
2017-04-20T03:59:59.099Z,9.97
2017-04-20T04:00:59.650Z,10.13
2017-04-20T04:02:00.022Z,9.80
2017-04-20T04:02:59.987Z,10.18
2017-04-20T04:04:00.746Z,10.58
2017-04-20T04:05:00.799Z,10.33
2017-04-20T04:06:00.822Z,9.15
2017-04-20T04:07:02.146Z,10.77
2017-04-20T04:08:02.210Z,11.02
2017-04-20T04:09:02.245Z,9.63
2017-04-20T04:10:02.276Z,10.53
2017-04-20T04:11:02.994Z,10.48
2017-04-20T04:12:04.618Z,9.77
2017-04-20T04:13:04.608Z,10.58
2017-04-20T04:14:04.706Z,10.22
2017-04-20T04:15:04.825Z,10.28
2017-04-20T04:16:04.859Z,10.40
2017-04-20T04:17:09.762Z,10.52
2017-04-20T04:18:10.609Z,10.13
2017-04-20T04:19:10.674Z,10.30
2017-04-20T04:20:10.689Z,9.57
2017-04-20T04:21:10.652Z,10.40
2017-04-20T04:22:11.052Z,10.63
2017-04-20T04:23:11.068Z,10.95
2017-04-20T04:24:12.164Z,11.68
2017-04-20T04:25:12.217Z,10.57
2017-04-20T04:26:12.305Z,10.15
2017-04-20T04:27:12.623Z,9.95
2017-04-20T04:28:14.694Z,10.28
2017-04-20T04:29:14.687Z,10.05
2017-04-20T04:30:15.450Z,10.20
2017-04-20T04:31:16.635Z,9.57
2017-04-20T04:32:16.949Z,10.80
2017-04-20T04:33:17.186Z,10.08
2017-04-20T04:34:17.777Z,11.70
2017-04-20T04:35:17.833Z,9.83
2017-04-20T04:36:17.867Z,9.45
2017-04-20T04:37:18.182Z,10.67
2017-04-20T04:38:18.318Z,11.40
2017-04-20T04:39:18.371Z,10.47
2017-04-20T04:40:18.414Z,10.12
2017-04-20T04:41:18.422Z,9.97
2017-04-20T04:42:18.863Z,11.13
2017-04-20T04:43:18.924Z,11.17
2017-04-20T04:44:19.556Z,11.00
2017-04-20T04:45:20.237Z,10.92
2017-04-20T04:46:20.290Z,9.92
2017-04-20T04:47:20.572Z,10.83
2017-04-20T04:48:20.680Z,11.33
2017-04-20T04:49:22.890Z,11.08
2017-04-20T04:50:22.955Z,11.43
2017-04-20T04:51:23.094Z,10.42
2017-04-20T04:52:23.465Z,11.18
2017-04-20T04:53:24.151Z,9.65
2017-04-20T04:54:24.158Z,10.95
2017-04-20T04:55:24.347Z,11.08
2017-04-20T04:56:24.337Z,10.83
2017-04-20T04:57:24.612Z,11.10
2017-04-20T04:58:24.906Z,10.70
2017-04-20T04:59:24.906Z,10.55
2017-04-20T05:00:25.609Z,11.58
2017-04-20T05:01:25.629Z,11.70
2017-04-20T05:02:26.041Z,11.60
2017-04-20T05:03:26.137Z,11.02
2017-04-20T05:04:26.214Z,11.47
2017-04-20T05:05:26.336Z,12.60
2017-04-20T05:06:26.379Z,12.10
2017-04-20T05:07:26.727Z,10.28
2017-04-20T05:08:26.743Z,11.03
2017-04-20T05:09:26.738Z,11.32
2017-04-20T05:10:26.774Z,11.18
2017-04-20T05:11:27.009Z,10.48
2017-04-20T05:12:27.400Z,10.53
2017-04-20T05:13:27.413Z,10.47
2017-04-20T05:14:27.456Z,10.20
2017-04-20T05:15:28.013Z,10.23
2017-04-20T05:16:28.758Z,9.97
2017-04-20T05:17:29.276Z,10.38
2017-04-20T05:18:36.090Z,10.80
2017-04-20T05:19:36.136Z,10.65
2017-04-20T05:20:36.179Z,10.75
2017-04-20T05:21:36.253Z,11.12
2017-04-20T05:22:36.692Z,11.48
2017-04-20T05:23:36.786Z,10.72
2017-04-20T05:24:36.910Z,11.25
2017-04-20T05:25:36.933Z,11.30
2017-04-20T05:26:36.964Z,10.73
2017-04-20T05:27:38.109Z,10.60
2017-04-20T05:28:38.964Z,10.18
2017-04-20T05:29:40.379Z,9.45
2017-04-20T05:30:40.365Z,9.88
2017-04-20T05:31:40.376Z,9.77
2017-04-20T05:32:40.781Z,11.00
2017-04-20T05:33:40.822Z,10.22
2017-04-20T05:34:40.954Z,10.45
2017-04-20T05:35:40.996Z,9.95
2017-04-20T05:36:41.021Z,10.87
2017-04-20T05:37:41.431Z,10.45
2017-04-20T05:38:41.522Z,10.05
2017-04-20T05:39:41.539Z,10.30
2017-04-20T05:40:41.577Z,9.70
2017-04-20T05:41:41.609Z,9.57
2017-04-20T05:42:41.924Z,9.12
2017-04-20T05:43:42.495Z,10.27
2017-04-20T05:44:42.529Z,10.18
2017-04-20T05:45:43.550Z,9.68
2017-04-20T05:46:43.660Z,10.18
2017-04-20T05:47:44.794Z,9.47
2017-04-20T05:48:44.803Z,10.00
2017-04-20T05:49:44.935Z,10.07
2017-04-20T05:50:47.155Z,9.83
2017-04-20T05:51:53.806Z,10.58
2017-04-20T05:52:54.221Z,10.75
2017-04-20T05:53:54.225Z,9.48
2017-04-20T05:54:54.279Z,9.18
2017-04-20T05:55:54.834Z,9.25
2017-04-20T05:56:54.882Z,9.55
2017-04-20T05:57:55.414Z,8.90
2017-04-20T05:58:55.476Z,9.05
2017-04-20T05:59:55.495Z,10.08
2017-04-20T06:00:55.550Z,9.27
2017-04-20T06:01:55.639Z,9.67
2017-04-20T06:02:56.678Z,8.97
2017-04-20T06:03:56.800Z,8.97
2017-04-20T06:04:56.876Z,9.17
2017-04-20T06:05:57.816Z,10.37
2017-04-20T06:06:58.600Z,9.87
2017-04-20T06:07:58.913Z,8.88
2017-04-20T06:08:58.942Z,8.88
2017-04-20T06:09:59.042Z,8.38
2017-04-20T06:10:59.082Z,8.52
2017-04-20T06:11:59.210Z,9.02
2017-04-20T06:12:59.517Z,7.85
2017-04-20T06:14:00.705Z,7.82
2017-04-20T06:15:01.488Z,9.30
2017-04-20T06:16:01.544Z,8.35
2017-04-20T06:17:01.567Z,8.70
2017-04-20T06:18:03.395Z,9.55
2017-04-20T06:19:03.421Z,8.55
2017-04-20T06:20:04.303Z,8.43
2017-04-20T06:21:04.582Z,8.87
2017-04-20T06:22:04.655Z,8.45
2017-04-20T06:23:07.236Z,9.05
2017-04-20T06:24:08.031Z,8.27
2017-04-20T06:25:08.093Z,8.45
2017-04-20T06:26:08.727Z,8.28
2017-04-20T06:27:09.636Z,8.23
2017-04-20T06:28:10.026Z,8.42
2017-04-20T06:29:10.428Z,8.65
2017-04-20T06:30:11.198Z,8.45
2017-04-20T06:31:11.194Z,8.18
2017-04-20T06:32:11.294Z,8.13
2017-04-20T06:33:11.706Z,9.12
2017-04-20T06:34:12.474Z,8.30
2017-04-20T06:35:12.480Z,7.65
2017-04-20T06:36:13.242Z,7.97
2017-04-20T06:37:13.992Z,9.18
2017-04-20T06:38:14.381Z,8.78
2017-04-20T06:39:14.689Z,7.80
2017-04-20T06:40:15.432Z,8.45
2017-04-20T06:41:15.466Z,8.13
2017-04-20T06:42:15.650Z,8.50
2017-04-20T06:43:15.985Z,8.87
2017-04-20T06:44:16.034Z,8.10
2017-04-20T06:45:16.813Z,8.22
2017-04-20T06:46:16.874Z,7.42
2017-04-20T06:47:16.945Z,8.50
2017-04-20T06:48:17.417Z,9.63
2017-04-20T06:49:18.266Z,8.58
2017-04-20T06:50:18.380Z,8.38
2017-04-20T06:51:18.414Z,7.93
2017-04-20T06:52:18.353Z,8.35
2017-04-20T06:53:18.689Z,8.08
2017-04-20T06:54:19.583Z,8.93
2017-04-20T06:55:19.587Z,8.72
2017-04-20T06:56:19.803Z,8.97
2017-04-20T06:57:19.993Z,8.53
2017-04-20T06:58:20.668Z,8.02
2017-04-20T06:59:20.756Z,8.27
2017-04-20T07:00:20.768Z,7.93
2017-04-20T07:01:20.820Z,8.63
2017-04-20T07:02:20.829Z,7.82
2017-04-20T07:03:21.276Z,7.93
2017-04-20T07:04:21.334Z,8.55
2017-04-20T07:05:21.363Z,8.72
2017-04-20T07:06:21.373Z,8.33
2017-04-20T07:07:21.444Z,8.02
2017-04-20T07:08:22.573Z,7.95
2017-04-20T07:09:23.333Z,8.80
2017-04-20T07:10:23.558Z,7.02
2017-04-20T07:11:23.679Z,8.32
2017-04-20T07:12:23.716Z,6.83
2017-04-20T07:13:24.039Z,8.15
2017-04-20T07:14:26.318Z,7.02
2017-04-20T07:15:26.296Z,7.58
2017-04-20T07:16:27.085Z,7.48
2017-04-20T07:17:27.123Z,7.55
2017-04-20T07:18:28.198Z,7.60
2017-04-20T07:19:28.290Z,8.07
2017-04-20T07:20:28.331Z,7.95
2017-04-20T07:21:28.394Z,8.03
2017-04-20T07:22:29.170Z,7.28
2017-04-20T07:23:29.612Z,6.72
2017-04-20T07:24:29.747Z,6.77
2017-04-20T07:25:30.498Z,7.00
2017-04-20T07:26:30.511Z,5.87
2017-04-20T07:27:31.220Z,6.55
2017-04-20T07:28:31.544Z,6.40
2017-04-20T07:29:31.665Z,6.42
2017-04-20T07:30:31.674Z,7.42
2017-04-20T07:31:31.790Z,6.78
2017-04-20T07:32:31.802Z,7.37
2017-04-20T07:33:34.227Z,7.23
2017-04-20T07:34:34.415Z,7.17
2017-04-20T07:35:35.206Z,6.95
2017-04-20T07:36:35.855Z,7.55
2017-04-20T07:37:35.930Z,7.67
2017-04-20T07:38:36.286Z,7.30
2017-04-20T07:39:36.465Z,7.50
2017-04-20T07:40:37.101Z,7.38
2017-04-20T07:41:37.734Z,7.50
2017-04-20T07:42:37.741Z,7.72
2017-04-20T07:43:38.073Z,7.60
2017-04-20T07:44:38.206Z,7.78
2017-04-20T07:45:38.311Z,7.02
2017-04-20T07:46:38.876Z,7.77
2017-04-20T07:47:38.866Z,8.45
2017-04-20T07:48:39.319Z,7.67
2017-04-20T07:49:40.193Z,7.32
2017-04-20T07:50:40.229Z,8.10
2017-04-20T07:51:40.318Z,8.07
2017-04-20T07:52:40.278Z,7.78
2017-04-20T07:53:40.625Z,8.32
2017-04-20T07:54:40.722Z,8.12
2017-04-20T07:55:40.815Z,7.90
2017-04-20T07:56:41.018Z,7.85
2017-04-20T07:57:41.058Z,7.88
2017-04-20T07:58:41.515Z,8.20
2017-04-20T07:59:41.602Z,8.48
2017-04-20T08:00:41.679Z,7.82
2017-04-20T08:01:41.701Z,7.60
2017-04-20T08:02:41.782Z,7.58
2017-04-20T08:03:43.138Z,8.73
2017-04-20T08:04:43.170Z,7.25
2017-04-20T08:05:43.236Z,7.90
2017-04-20T08:06:43.911Z,7.63
2017-04-20T08:07:43.973Z,7.55
2017-04-20T08:08:44.876Z,8.35
2017-04-20T08:09:51.679Z,7.62
2017-04-20T08:10:51.717Z,7.68
2017-04-20T08:11:51.820Z,7.57
2017-04-20T08:12:51.889Z,7.35
2017-04-20T08:13:52.260Z,8.78
2017-04-20T08:14:52.365Z,7.38
2017-04-20T08:15:52.446Z,8.13
2017-04-20T08:16:52.493Z,8.18
2017-04-20T08:17:53.302Z,8.70
2017-04-20T08:18:54.276Z,8.80
2017-04-20T08:19:55.329Z,8.60
2017-04-20T08:20:56.395Z,8.55
2017-04-20T08:21:56.568Z,8.22
2017-04-20T08:22:56.658Z,7.87
2017-04-20T08:23:57.032Z,8.87
2017-04-20T08:24:57.145Z,9.05
2017-04-20T08:25:57.391Z,8.83
2017-04-20T08:26:57.492Z,8.27
2017-04-20T08:27:57.591Z,8.28
2017-04-20T08:28:58.218Z,8.68
2017-04-20T08:29:58.338Z,8.33
2017-04-20T08:30:58.455Z,8.43
2017-04-20T08:31:59.210Z,8.30
2017-04-20T08:32:59.220Z,8.87
2017-04-20T08:33:59.610Z,7.60
2017-04-20T08:34:59.906Z,8.35
2017-04-20T08:36:00.116Z,8.73
2017-04-20T08:37:00.271Z,8.18
2017-04-20T08:38:00.326Z,8.30
2017-04-20T08:39:00.825Z,8.88
2017-04-20T08:40:01.771Z,8.00
2017-04-20T08:41:01.802Z,9.33
2017-04-20T08:42:02.049Z,9.15
2017-04-20T08:43:02.085Z,8.47
2017-04-20T08:44:02.415Z,8.55
2017-04-20T08:45:02.445Z,7.78
2017-04-20T08:46:02.552Z,7.32
2017-04-20T08:47:02.614Z,8.65
2017-04-20T08:48:02.653Z,8.45
2017-04-20T08:49:02.990Z,8.20
2017-04-20T08:50:03.050Z,8.38
2017-04-20T08:51:03.090Z,7.33
2017-04-20T08:52:03.170Z,8.30
2017-04-20T08:53:03.269Z,8.47
2017-04-20T08:54:04.306Z,8.33
2017-04-20T08:55:04.331Z,7.95
2017-04-20T08:56:04.374Z,8.08
2017-04-20T08:57:04.456Z,8.73
2017-04-20T08:58:04.541Z,8.20
2017-04-20T08:59:05.083Z,8.58
2017-04-20T09:00:05.166Z,8.67
2017-04-20T09:01:05.371Z,8.58
2017-04-20T09:02:05.416Z,8.98
2017-04-20T09:03:05.458Z,7.20
2017-04-20T09:04:05.802Z,8.33
2017-04-20T09:05:06.609Z,8.88
2017-04-20T09:06:06.632Z,7.78
2017-04-20T09:07:07.484Z,7.98
2017-04-20T09:08:07.548Z,7.85
2017-04-20T09:09:08.170Z,8.02
2017-04-20T09:10:08.214Z,7.67
2017-04-20T09:11:08.267Z,7.22
2017-04-20T09:13:09.078Z,8.87
2017-04-20T09:14:10.054Z,8.97
2017-04-20T09:15:10.056Z,8.18
2017-04-20T09:16:10.292Z,8.05
2017-04-20T09:17:10.404Z,7.75
2017-04-20T09:18:10.452Z,8.12
2017-04-20T09:19:10.806Z,8.42
2017-04-20T09:20:11.705Z,7.73
2017-04-20T09:21:12.398Z,7.62
2017-04-20T09:22:12.463Z,7.90
2017-04-20T09:23:12.624Z,8.70
2017-04-20T09:24:13.003Z,7.72
2017-04-20T09:25:13.148Z,7.45
2017-04-20T09:26:14.386Z,8.70
2017-04-20T09:27:18.601Z,7.90
2017-04-20T09:28:18.730Z,7.95
2017-04-20T09:29:19.261Z,8.15
2017-04-20T09:30:19.373Z,8.05
2017-04-20T09:31:19.489Z,8.53
2017-04-20T09:32:20.223Z,7.98
2017-04-20T09:33:20.305Z,7.48
2017-04-20T09:34:20.630Z,7.35
2017-04-20T09:35:20.762Z,7.17
2017-04-20T09:36:20.781Z,7.98
2017-04-20T09:37:20.882Z,7.55
2017-04-20T09:38:23.853Z,7.43
2017-04-20T09:39:24.241Z,7.27
2017-04-20T09:40:24.311Z,7.17
2017-04-20T09:41:24.509Z,7.25
2017-04-20T09:42:24.528Z,7.70
2017-04-20T09:43:24.571Z,8.62
2017-04-20T09:44:24.996Z,7.30
2017-04-20T09:45:25.026Z,8.28
2017-04-20T09:46:25.141Z,7.52
2017-04-20T09:47:25.165Z,8.48
2017-04-20T09:48:25.194Z,7.72
2017-04-20T09:49:32.142Z,7.48
2017-04-20T09:50:32.124Z,8.17
2017-04-20T09:51:32.379Z,8.47
2017-04-20T09:52:32.415Z,8.68
2017-04-20T09:53:32.456Z,8.15
2017-04-20T09:54:32.920Z,8.50
2017-04-20T09:55:32.947Z,8.85
2017-04-20T09:56:33.033Z,8.45
2017-04-20T09:57:33.385Z,7.72
2017-04-20T09:58:33.378Z,7.07
2017-04-20T09:59:34.585Z,7.75
2017-04-20T10:00:34.679Z,7.77
2017-04-20T10:01:34.728Z,8.02
2017-04-20T10:02:34.788Z,8.18
2017-04-20T10:03:34.810Z,6.92
2017-04-20T10:04:35.258Z,7.95
2017-04-20T10:05:36.262Z,7.47
2017-04-20T10:06:36.335Z,6.87
2017-04-20T10:07:36.344Z,7.98
2017-04-20T10:08:36.339Z,7.38
2017-04-20T10:09:36.830Z,7.45
2017-04-20T10:10:37.696Z,7.53
2017-04-20T10:11:37.834Z,7.52
2017-04-20T10:12:38.605Z,7.43
2017-04-20T10:13:38.806Z,8.15
2017-04-20T10:14:39.316Z,7.67
2017-04-20T10:15:40.034Z,7.83
2017-04-20T10:16:40.076Z,8.80
2017-04-20T10:17:40.086Z,7.52
2017-04-20T10:18:40.243Z,8.50
2017-04-20T10:19:40.604Z,7.85
2017-04-20T10:20:40.762Z,7.82
2017-04-20T10:21:40.840Z,7.65
2017-04-20T10:22:41.486Z,7.72
2017-04-20T10:23:41.539Z,7.35
2017-04-20T10:24:42.049Z,8.57
2017-04-20T10:25:42.925Z,7.82
2017-04-20T10:26:42.942Z,8.30
2017-04-20T10:27:43.086Z,8.00
2017-04-20T10:28:43.188Z,8.20
2017-04-20T10:29:43.627Z,7.87
2017-04-20T10:30:43.871Z,7.87
2017-04-20T10:31:43.930Z,8.25
2017-04-20T10:32:44.737Z,8.03
2017-04-20T10:33:44.870Z,8.40
2017-04-20T10:34:45.995Z,7.97
2017-04-20T10:35:46.146Z,8.33
2017-04-20T10:36:46.315Z,8.55
2017-04-20T10:37:46.340Z,7.90
2017-04-20T10:38:46.366Z,7.83
2017-04-20T10:39:46.767Z,8.70
2017-04-20T10:40:46.815Z,8.75
2017-04-20T10:41:46.822Z,7.20
2017-04-20T10:42:46.866Z,8.05
2017-04-20T10:43:47.018Z,8.55
2017-04-20T10:44:47.313Z,7.35
2017-04-20T10:45:47.327Z,7.87
2017-04-20T10:46:47.398Z,7.97
2017-04-20T10:47:47.405Z,7.98
2017-04-20T10:48:47.407Z,8.12
2017-04-20T10:49:47.737Z,7.83
2017-04-20T10:50:48.512Z,7.63
2017-04-20T10:51:48.547Z,7.27
2017-04-20T10:52:48.509Z,8.13
2017-04-20T10:53:48.509Z,8.32
2017-04-20T10:54:48.877Z,8.37
2017-04-20T10:55:48.926Z,7.40
2017-04-20T10:56:48.928Z,7.98
2017-04-20T10:57:48.986Z,8.65
2017-04-20T10:58:49.061Z,8.72
2017-04-20T10:59:49.454Z,8.90
2017-04-20T11:00:49.446Z,7.55
2017-04-20T11:01:50.250Z,8.80
2017-04-20T11:02:50.253Z,8.62
2017-04-20T11:03:50.318Z,7.75
2017-04-20T11:04:50.745Z,8.60
2017-04-20T11:05:51.178Z,7.85
2017-04-20T11:06:51.796Z,8.13
2017-04-20T11:07:52.539Z,8.10
2017-04-20T11:08:52.552Z,7.52
2017-04-20T11:09:52.986Z,8.33
2017-04-20T11:10:53.050Z,7.97
2017-04-20T11:11:53.597Z,8.43
2017-04-20T11:12:53.770Z,9.02
2017-04-20T11:13:53.810Z,8.82
2017-04-20T11:14:54.190Z,8.05
2017-04-20T11:15:54.230Z,8.33
2017-04-20T11:16:54.244Z,8.15
2017-04-20T11:17:54.241Z,7.72
2017-04-20T11:18:54.307Z,8.72
2017-04-20T11:19:54.790Z,8.85
2017-04-20T11:20:54.926Z,8.10
2017-04-20T11:21:54.950Z,8.88
2017-04-20T11:22:54.979Z,8.95
2017-04-20T11:23:55.059Z,9.15
2017-04-20T11:24:55.534Z,8.95
2017-04-20T11:25:55.542Z,9.25
2017-04-20T11:26:55.560Z,9.37
2017-04-20T11:27:56.291Z,8.35
2017-04-20T11:28:56.378Z,9.70
2017-04-20T11:29:57.532Z,9.58
2017-04-20T11:30:57.705Z,8.45
2017-04-20T11:31:57.932Z,8.42
2017-04-20T11:32:57.973Z,8.48
2017-04-20T11:33:58.048Z,9.05
2017-04-20T11:34:58.691Z,8.88
2017-04-20T11:35:58.715Z,8.83
2017-04-20T11:36:58.834Z,9.02
2017-04-20T11:37:58.964Z,9.15
2017-04-20T11:38:59.150Z,8.00
2017-04-20T11:39:59.540Z,8.48
2017-04-20T11:40:59.517Z,7.97
2017-04-20T11:41:59.599Z,8.55
2017-04-20T11:42:59.645Z,9.08
2017-04-20T11:44:00.435Z,8.65
2017-04-20T11:45:01.115Z,8.10
2017-04-20T11:46:01.120Z,8.03
2017-04-20T11:47:01.158Z,8.27
2017-04-20T11:48:01.173Z,8.28
2017-04-20T11:49:01.210Z,8.45
2017-04-20T11:50:01.651Z,8.82
2017-04-20T11:51:01.834Z,8.55
2017-04-20T11:52:01.828Z,9.30
2017-04-20T11:53:01.929Z,8.75
2017-04-20T11:54:01.934Z,9.25
2017-04-20T11:55:02.482Z,9.18
2017-04-20T11:56:03.250Z,8.67
2017-04-20T11:57:03.263Z,8.47
2017-04-20T11:58:03.298Z,8.75
2017-04-20T11:59:03.394Z,9.03
2017-04-20T12:00:03.843Z,8.70
2017-04-20T12:01:04.918Z,8.88
2017-04-20T12:02:04.981Z,8.85
2017-04-20T12:03:04.998Z,8.75
2017-04-20T12:04:05.907Z,8.95
2017-04-20T12:05:06.356Z,8.93
2017-04-20T12:06:06.590Z,10.32
2017-04-20T12:07:07.373Z,9.55
2017-04-20T12:08:08.027Z,8.95
2017-04-20T12:09:08.152Z,9.63
2017-04-20T12:10:08.515Z,8.70
2017-04-20T12:11:09.298Z,8.63
2017-04-20T12:12:09.325Z,9.10
2017-04-20T12:13:09.474Z,9.33
2017-04-20T12:14:09.622Z,10.25
2017-04-20T12:15:10.031Z,10.35
2017-04-20T12:16:10.054Z,8.75
2017-04-20T12:17:10.089Z,8.97
2017-04-20T12:18:10.125Z,8.67
2017-04-20T12:19:10.562Z,9.75
2017-04-20T12:20:10.936Z,9.38
2017-04-20T12:21:11.012Z,9.83
2017-04-20T12:22:11.050Z,9.23
2017-04-20T12:23:11.935Z,9.03
2017-04-20T12:24:12.054Z,9.65
2017-04-20T12:25:12.534Z,8.42
2017-04-20T12:26:12.599Z,8.80
2017-04-20T12:27:12.645Z,9.72
2017-04-20T12:28:12.736Z,9.28
2017-04-20T12:29:12.827Z,9.65
2017-04-20T12:30:13.394Z,9.57
2017-04-20T12:31:13.440Z,9.28
2017-04-20T12:32:13.631Z,10.07
2017-04-20T12:33:14.422Z,8.95
2017-04-20T12:34:14.865Z,8.77
2017-04-20T12:35:15.260Z,9.35
2017-04-20T12:36:15.336Z,9.37
2017-04-20T12:37:15.523Z,9.73
2017-04-20T12:38:15.592Z,10.18
2017-04-20T12:39:16.378Z,9.58
2017-04-20T12:40:16.805Z,10.08
2017-04-20T12:41:16.846Z,9.83
2017-04-20T12:42:17.060Z,10.78
2017-04-20T12:43:17.650Z,10.15
2017-04-20T12:44:17.901Z,9.60
2017-04-20T12:45:18.271Z,9.33
2017-04-20T12:46:18.334Z,9.97
2017-04-20T12:47:18.377Z,10.05
2017-04-20T12:48:18.361Z,10.02
2017-04-20T12:49:19.095Z,9.62
2017-04-20T12:50:19.452Z,10.02
2017-04-20T12:51:19.510Z,10.10
2017-04-20T12:52:19.744Z,9.33
2017-04-20T12:53:20.606Z,10.10
2017-04-20T12:54:20.653Z,9.78
2017-04-20T12:55:21.198Z,9.23
2017-04-20T12:56:21.367Z,10.08
2017-04-20T12:57:21.455Z,9.53
2017-04-20T12:58:21.700Z,9.85
2017-04-20T12:59:22.530Z,10.15
2017-04-20T13:00:22.894Z,10.75
2017-04-20T13:01:22.974Z,9.67
2017-04-20T13:02:23.074Z,10.27
2017-04-20T13:03:23.163Z,9.32
2017-04-20T13:04:23.199Z,10.73
2017-04-20T13:05:24.440Z,11.32
2017-04-20T13:06:25.334Z,10.25
2017-04-20T13:07:31.992Z,10.97
2017-04-20T13:08:32.158Z,10.68
2017-04-20T13:09:32.198Z,10.15
2017-04-20T13:10:32.638Z,9.45
2017-04-20T13:11:32.762Z,10.42
2017-04-20T13:12:33.050Z,9.58